General La Madrid, Argentina
Current Conditions -  °F | °C
As of 7:00 PM on Thursday 23 Oct 2014 (Local Time) from SAZM Reporting Station
Moderate Rain Moderate Rain  
Wind Chill: 57°   Ceiling: 5000
Heat Index: 57°   Visibility: 5mi
Dew Point: 54°   Wind: 8mph
Humidity: 88%   Direction: 140°SE
Pressure: 30.06"   Gusts: NA
Location:  37.27°S, 61.28°W
Report Text: SAZM 232200Z 14007KT 8000 RA BKN050 BKN20014/12 Q1018
Loading
Personal Weather Stations






























Interactive Weather Map
Tropical Storm Tracking
New forecast layout! Learn more

10-Day Weather Forecast

Advertisements
Track Severe Weather on mobile